sensor_id;sensor_type;location;lat;lon;timestamp;P1;durP1;ratioP1;P2;durP2;ratioP2
33495;SDS011;19836;55.812;37.560;2022-09-16T00:00:35;7.72;;;6.43;;
33495;SDS011;19836;55.812;37.560;2022-09-16T00:03:01;8.10;;;7.25;;
33495;SDS011;19836;55.812;37.560;2022-09-16T00:05:27;9.60;;;7.30;;
33495;SDS011;19836;55.812;37.560;2022-09-16T00:07:54;8.20;;;7.18;;
33495;SDS011;19836;55.812;37.560;2022-09-16T00:10:21;8.32;;;7.18;;
33495;SDS011;19836;55.812;37.560;2022-09-16T00:12:48;9.10;;;8.00;;
33495;SDS011;19836;55.812;37.560;2022-09-16T00:15:14;8.95;;;7.50;;
33495;SDS011;19836;55.812;37.560;2022-09-16T00:17:40;9.50;;;6.97;;
33495;SDS011;19836;55.812;37.560;2022-09-16T00:20:07;9.27;;;7.55;;
33495;SDS011;19836;55.812;37.560;2022-09-16T00:22:33;9.70;;;8.48;;
33495;SDS011;19836;55.812;37.560;2022-09-16T00:24:59;9.20;;;7.55;;
33495;SDS011;19836;55.812;37.560;2022-09-16T00:27:25;8.93;;;7.32;;
33495;SDS011;19836;55.812;37.560;2022-09-16T00:29:52;9.15;;;7.50;;
33495;SDS011;19836;55.812;37.560;2022-09-16T00:32:18;11.55;;;7.88;;
33495;SDS011;19836;55.812;37.560;2022-09-16T00:34:44;9.88;;;7.40;;
33495;SDS011;19836;55.812;37.560;2022-09-16T00:37:10;10.98;;;7.93;;
33495;SDS011;19836;55.812;37.560;2022-09-16T00:39:35;8.38;;;7.50;;
33495;SDS011;19836;55.812;37.560;2022-09-16T00:42:02;10.80;;;8.20;;
33495;SDS011;19836;55.812;37.560;2022-09-16T00:47:23;9.10;;;7.18;;
33495;SDS011;19836;55.812;37.560;2022-09-16T00:50:16;11.25;;;7.95;;
33495;SDS011;19836;55.812;37.560;2022-09-16T00:52:46;9.15;;;7.47;;
33495;SDS011;19836;55.812;37.560;2022-09-16T00:55:15;9.55;;;7.10;;
33495;SDS011;19836;55.812;37.560;2022-09-16T00:57:44;12.02;;;8.13;;
33495;SDS011;19836;55.812;37.560;2022-09-16T01:00:11;9.48;;;7.95;;
33495;SDS011;19836;55.812;37.560;2022-09-16T01:02:39;12.13;;;7.82;;
33495;SDS011;19836;55.812;37.560;2022-09-16T01:05:08;8.40;;;7.60;;
33495;SDS011;19836;55.812;37.560;2022-09-16T01:07:38;9.80;;;8.23;;
33495;SDS011;19836;55.812;37.560;2022-09-16T01:10:16;9.05;;;7.35;;
33495;SDS011;19836;55.812;37.560;2022-09-16T01:12:45;11.82;;;8.10;;
33495;SDS011;19836;55.812;37.560;2022-09-16T01:15:14;10.27;;;8.10;;
33495;SDS011;19836;55.812;37.560;2022-09-16T01:17:57;9.05;;;7.95;;
33495;SDS011;19836;55.812;37.560;2022-09-16T01:20:38;11.43;;;7.32;;
33495;SDS011;19836;55.812;37.560;2022-09-16T01:34:57;11.35;;;8.32;;
33495;SDS011;19836;55.812;37.560;2022-09-16T01:37:33;11.48;;;7.55;;
33495;SDS011;19836;55.812;37.560;2022-09-16T01:43:05;9.90;;;7.88;;
33495;SDS011;19836;55.812;37.560;2022-09-16T01:48:34;9.85;;;8.27;;
33495;SDS011;19836;55.812;37.560;2022-09-16T01:51:05;8.50;;;7.55;;
33495;SDS011;19836;55.812;37.560;2022-09-16T01:53:38;9.00;;;8.10;;
33495;SDS011;19836;55.812;37.560;2022-09-16T01:58:50;9.25;;;8.13;;
33495;SDS011;19836;55.812;37.560;2022-09-16T02:01:26;9.18;;;8.20;;
33495;SDS011;19836;55.812;37.560;2022-09-16T02:04:00;9.40;;;8.10;;
33495;SDS011;19836;55.812;37.560;2022-09-16T02:06:31;9.77;;;8.30;;
33495;SDS011;19836;55.812;37.560;2022-09-16T02:09:00;9.07;;;7.40;;
33495;SDS011;19836;55.812;37.560;2022-09-16T02:11:30;10.27;;;7.95;;
33495;SDS011;19836;55.812;37.560;2022-09-16T02:14:03;11.32;;;8.27;;
33495;SDS011;19836;55.812;37.560;2022-09-16T02:16:34;10.55;;;7.72;;
33495;SDS011;19836;55.812;37.560;2022-09-16T02:19:09;9.95;;;8.25;;
33495;SDS011;19836;55.812;37.560;2022-09-16T02:21:40;9.30;;;7.95;;
33495;SDS011;19836;55.812;37.560;2022-09-16T02:24:08;9.48;;;7.68;;
33495;SDS011;19836;55.812;37.560;2022-09-16T02:26:42;9.25;;;7.97;;
33495;SDS011;19836;55.812;37.560;2022-09-16T02:29:13;8.57;;;7.45;;
33495;SDS011;19836;55.812;37.560;2022-09-16T02:31:43;10.02;;;7.68;;
33495;SDS011;19836;55.812;37.560;2022-09-16T02:34:13;12.02;;;8.00;;
33495;SDS011;19836;55.812;37.560;2022-09-16T02:36:44;12.05;;;7.80;;
33495;SDS011;19836;55.812;37.560;2022-09-16T02:39:14;9.07;;;7.72;;
33495;SDS011;19836;55.812;37.560;2022-09-16T02:41:47;14.85;;;8.00;;
33495;SDS011;19836;55.812;37.560;2022-09-16T02:44:13;10.70;;;7.78;;
33495;SDS011;19836;55.812;37.560;2022-09-16T02:46:46;9.05;;;8.15;;
33495;SDS011;19836;55.812;37.560;2022-09-16T02:57:38;8.52;;;7.57;;
33495;SDS011;19836;55.812;37.560;2022-09-16T03:00:04;9.68;;;7.72;;
33495;SDS011;19836;55.812;37.560;2022-09-16T03:02:32;8.80;;;7.32;;
33495;SDS011;19836;55.812;37.560;2022-09-16T03:04:58;9.38;;;7.55;;
33495;SDS011;19836;55.812;37.560;2022-09-16T03:07:25;8.30;;;7.50;;
33495;SDS011;19836;55.812;37.560;2022-09-16T03:09:51;9.00;;;7.75;;
33495;SDS011;19836;55.812;37.560;2022-09-16T03:20:43;7.65;;;6.60;;
33495;SDS011;19836;55.812;37.560;2022-09-16T03:26:30;7.75;;;6.95;;
33495;SDS011;19836;55.812;37.560;2022-09-16T03:29:22;8.27;;;7.55;;
33495;SDS011;19836;55.812;37.560;2022-09-16T03:34:54;10.02;;;7.35;;
33495;SDS011;19836;55.812;37.560;2022-09-16T03:37:32;7.88;;;7.07;;
33495;SDS011;19836;55.812;37.560;2022-09-16T03:40:04;8.18;;;7.38;;
33495;SDS011;19836;55.812;37.560;2022-09-16T03:42:39;7.68;;;6.88;;
33495;SDS011;19836;55.812;37.560;2022-09-16T03:45:08;8.60;;;7.68;;
33495;SDS011;19836;55.812;37.560;2022-09-16T03:47:38;8.55;;;7.40;;
33495;SDS011;19836;55.812;37.560;2022-09-16T03:50:04;11.45;;;7.57;;
33495;SDS011;19836;55.812;37.560;2022-09-16T03:52:30;8.68;;;7.00;;
33495;SDS011;19836;55.812;37.560;2022-09-16T03:54:56;7.63;;;6.88;;
33495;SDS011;19836;55.812;37.560;2022-09-16T03:57:22;7.82;;;6.75;;
33495;SDS011;19836;55.812;37.560;2022-09-16T03:59:48;8.88;;;7.00;;
33495;SDS011;19836;55.812;37.560;2022-09-16T04:02:14;7.88;;;7.13;;
33495;SDS011;19836;55.812;37.560;2022-09-16T04:04:40;7.03;;;6.38;;
33495;SDS011;19836;55.812;37.560;2022-09-16T04:07:05;7.78;;;6.40;;
33495;SDS011;19836;55.812;37.560;2022-09-16T04:09:31;9.77;;;7.03;;
33495;SDS011;19836;55.812;37.560;2022-09-16T04:11:57;7.63;;;6.70;;
33495;SDS011;19836;55.812;37.560;2022-09-16T04:14:26;7.82;;;7.03;;
33495;SDS011;19836;55.812;37.560;2022-09-16T04:16:53;8.43;;;6.90;;
33495;SDS011;19836;55.812;37.560;2022-09-16T04:19:19;7.38;;;6.25;;
33495;SDS011;19836;55.812;37.560;2022-09-16T04:21:45;8.45;;;6.75;;
33495;SDS011;19836;55.812;37.560;2022-09-16T04:24:10;7.95;;;6.63;;
33495;SDS011;19836;55.812;37.560;2022-09-16T04:26:37;7.72;;;6.43;;
33495;SDS011;19836;55.812;37.560;2022-09-16T04:29:03;8.70;;;6.65;;
33495;SDS011;19836;55.812;37.560;2022-09-16T04:31:29;8.05;;;6.18;;
33495;SDS011;19836;55.812;37.560;2022-09-16T04:34:27;7.35;;;6.32;;
33495;SDS011;19836;55.812;37.560;2022-09-16T04:36:53;7.82;;;6.50;;
33495;SDS011;19836;55.812;37.560;2022-09-16T04:39:20;8.05;;;7.05;;
33495;SDS011;19836;55.812;37.560;2022-09-16T04:41:47;8.40;;;6.85;;
33495;SDS011;19836;55.812;37.560;2022-09-16T04:44:53;8.68;;;6.63;;
33495;SDS011;19836;55.812;37.560;2022-09-16T04:47:42;7.43;;;6.03;;
33495;SDS011;19836;55.812;37.560;2022-09-16T04:50:17;8.32;;;6.85;;
33495;SDS011;19836;55.812;37.560;2022-09-16T04:59:49;7.50;;;6.80;;
33495;SDS011;19836;55.812;37.560;2022-09-16T05:02:15;6.72;;;6.03;;
33495;SDS011;19836;55.812;37.560;2022-09-16T05:04:41;8.30;;;6.78;;
33495;SDS011;19836;55.812;37.560;2022-09-16T05:07:06;8.40;;;7.20;;
33495;SDS011;19836;55.812;37.560;2022-09-16T05:12:59;8.75;;;7.15;;
33495;SDS011;19836;55.812;37.560;2022-09-16T05:15:25;9.50;;;7.43;;
33495;SDS011;19836;55.812;37.560;2022-09-16T05:17:52;10.48;;;7.15;;
33495;SDS011;19836;55.812;37.560;2022-09-16T05:20:18;9.07;;;7.30;;
33495;SDS011;19836;55.812;37.560;2022-09-16T05:22:47;8.82;;;7.18;;
33495;SDS011;19836;55.812;37.560;2022-09-16T05:25:14;8.02;;;7.00;;
33495;SDS011;19836;55.812;37.560;2022-09-16T05:27:40;8.95;;;6.97;;
33495;SDS011;19836;55.812;37.560;2022-09-16T05:30:07;7.38;;;6.60;;
33495;SDS011;19836;55.812;37.560;2022-09-16T05:35:28;9.90;;;7.68;;
33495;SDS011;19836;55.812;37.560;2022-09-16T05:37:54;9.40;;;8.15;;
33495;SDS011;19836;55.812;37.560;2022-09-16T05:40:21;10.07;;;7.28;;
33495;SDS011;19836;55.812;37.560;2022-09-16T05:42:52;9.95;;;7.40;;
33495;SDS011;19836;55.812;37.560;2022-09-16T05:45:18;8.77;;;7.80;;
33495;SDS011;19836;55.812;37.560;2022-09-16T05:48:37;9.10;;;7.30;;
33495;SDS011;19836;55.812;37.560;2022-09-16T05:51:04;7.63;;;6.75;;
33495;SDS011;19836;55.812;37.560;2022-09-16T05:53:36;7.88;;;6.75;;
33495;SDS011;19836;55.812;37.560;2022-09-16T05:56:03;8.57;;;6.70;;
33495;SDS011;19836;55.812;37.560;2022-09-16T06:02:41;8.73;;;7.38;;
33495;SDS011;19836;55.812;37.560;2022-09-16T06:07:34;11.25;;;7.40;;
33495;SDS011;19836;55.812;37.560;2022-09-16T06:10:01;8.30;;;7.35;;
33495;SDS011;19836;55.812;37.560;2022-09-16T06:28:50;9.85;;;7.53;;
33495;SDS011;19836;55.812;37.560;2022-09-16T06:34:02;10.98;;;8.13;;
33495;SDS011;19836;55.812;37.560;2022-09-16T06:36:31;9.77;;;8.05;;
33495;SDS011;19836;55.812;37.560;2022-09-16T06:39:02;10.15;;;7.85;;
33495;SDS011;19836;55.812;37.560;2022-09-16T06:41:36;11.63;;;8.35;;
33495;SDS011;19836;55.812;37.560;2022-09-16T06:44:02;10.02;;;7.72;;
33495;SDS011;19836;55.812;37.560;2022-09-16T06:46:28;17.92;;;16.08;;
33495;SDS011;19836;55.812;37.560;2022-09-16T06:48:56;11.77;;;10.50;;
33495;SDS011;19836;55.812;37.560;2022-09-16T06:51:28;10.70;;;8.30;;
33495;SDS011;19836;55.812;37.560;2022-09-16T06:53:59;12.18;;;10.80;;
33495;SDS011;19836;55.812;37.560;2022-09-16T06:56:30;9.93;;;8.05;;
33495;SDS011;19836;55.812;37.560;2022-09-16T06:58:57;11.65;;;9.85;;
33495;SDS011;19836;55.812;37.560;2022-09-16T07:01:24;10.07;;;7.95;;
33495;SDS011;19836;55.812;37.560;2022-09-16T07:03:53;11.13;;;9.38;;
33495;SDS011;19836;55.812;37.560;2022-09-16T07:06:23;11.45;;;8.38;;
33495;SDS011;19836;55.812;37.560;2022-09-16T07:08:56;10.98;;;8.32;;
33495;SDS011;19836;55.812;37.560;2022-09-16T07:11:22;10.52;;;8.70;;
33495;SDS011;19836;55.812;37.560;2022-09-16T07:13:49;10.43;;;7.80;;
33495;SDS011;19836;55.812;37.560;2022-09-16T07:16:19;12.95;;;9.43;;
33495;SDS011;19836;55.812;37.560;2022-09-16T07:18:52;13.48;;;8.20;;
33495;SDS011;19836;55.812;37.560;2022-09-16T07:23:49;9.65;;;7.53;;
33495;SDS011;19836;55.812;37.560;2022-09-16T07:26:17;10.55;;;8.70;;
33495;SDS011;19836;55.812;37.560;2022-09-16T07:28:48;10.98;;;8.52;;
33495;SDS011;19836;55.812;37.560;2022-09-16T07:31:16;10.55;;;8.55;;
33495;SDS011;19836;55.812;37.560;2022-09-16T07:33:53;10.30;;;8.60;;
33495;SDS011;19836;55.812;37.560;2022-09-16T07:36:23;13.75;;;9.15;;
33495;SDS011;19836;55.812;37.560;2022-09-16T07:38:51;10.88;;;9.15;;
33495;SDS011;19836;55.812;37.560;2022-09-16T07:41:20;13.82;;;8.88;;
33495;SDS011;19836;55.812;37.560;2022-09-16T07:43:47;12.43;;;8.93;;
33495;SDS011;19836;55.812;37.560;2022-09-16T07:46:16;11.73;;;9.15;;
33495;SDS011;19836;55.812;37.560;2022-09-16T07:48:43;12.52;;;10.00;;
33495;SDS011;19836;55.812;37.560;2022-09-16T07:51:15;11.93;;;9.43;;
33495;SDS011;19836;55.812;37.560;2022-09-16T07:53:42;13.52;;;9.30;;
33495;SDS011;19836;55.812;37.560;2022-09-16T07:56:16;11.90;;;9.10;;
33495;SDS011;19836;55.812;37.560;2022-09-16T07:58:45;11.82;;;9.35;;
33495;SDS011;19836;55.812;37.560;2022-09-16T08:01:13;11.25;;;9.45;;
33495;SDS011;19836;55.812;37.560;2022-09-16T08:03:40;12.75;;;9.00;;
33495;SDS011;19836;55.812;37.560;2022-09-16T08:06:09;10.65;;;9.45;;
33495;SDS011;19836;55.812;37.560;2022-09-16T08:08:43;9.93;;;8.93;;
33495;SDS011;19836;55.812;37.560;2022-09-16T08:11:12;14.38;;;9.18;;
33495;SDS011;19836;55.812;37.560;2022-09-16T08:13:39;11.55;;;10.32;;
33495;SDS011;19836;55.812;37.560;2022-09-16T08:16:08;12.18;;;9.18;;
33495;SDS011;19836;55.812;37.560;2022-09-16T08:18:36;12.88;;;9.80;;
33495;SDS011;19836;55.812;37.560;2022-09-16T08:21:06;12.00;;;8.60;;
33495;SDS011;19836;55.812;37.560;2022-09-16T08:23:33;24.80;;;18.73;;
33495;SDS011;19836;55.812;37.560;2022-09-16T08:26:03;12.85;;;9.98;;
33495;SDS011;19836;55.812;37.560;2022-09-16T08:28:30;10.25;;;9.13;;
33495;SDS011;19836;55.812;37.560;2022-09-16T08:31:00;9.45;;;8.38;;
33495;SDS011;19836;55.812;37.560;2022-09-16T08:33:27;12.25;;;8.57;;
33495;SDS011;19836;55.812;37.560;2022-09-16T08:36:00;10.82;;;8.93;;
33495;SDS011;19836;55.812;37.560;2022-09-16T08:38:27;13.68;;;9.65;;
33495;SDS011;19836;55.812;37.560;2022-09-16T08:43:39;13.95;;;8.68;;
33495;SDS011;19836;55.812;37.560;2022-09-16T08:46:57;9.23;;;7.93;;
33495;SDS011;19836;55.812;37.560;2022-09-16T08:51:51;12.40;;;9.18;;
33495;SDS011;19836;55.812;37.560;2022-09-16T08:54:23;8.60;;;7.70;;
33495;SDS011;19836;55.812;37.560;2022-09-16T08:56:54;8.70;;;7.00;;
33495;SDS011;19836;55.812;37.560;2022-09-16T08:59:26;10.30;;;7.35;;
33495;SDS011;19836;55.812;37.560;2022-09-16T09:01:59;8.10;;;7.30;;
33495;SDS011;19836;55.812;37.560;2022-09-16T09:11:47;9.45;;;8.45;;
33495;SDS011;19836;55.812;37.560;2022-09-16T09:14:50;8.32;;;7.45;;
33495;SDS011;19836;55.812;37.560;2022-09-16T09:20:51;6.93;;;5.65;;
33495;SDS011;19836;55.812;37.560;2022-09-16T09:23:32;8.88;;;6.03;;
33495;SDS011;19836;55.812;37.560;2022-09-16T09:29:30;6.82;;;5.50;;
33495;SDS011;19836;55.812;37.560;2022-09-16T09:37:36;7.50;;;5.47;;
33495;SDS011;19836;55.812;37.560;2022-09-16T09:43:04;6.45;;;5.85;;
33495;SDS011;19836;55.812;37.560;2022-09-16T09:48:41;7.78;;;5.68;;
33495;SDS011;19836;55.812;37.560;2022-09-16T09:54:03;6.47;;;5.78;;
33495;SDS011;19836;55.812;37.560;2022-09-16T09:56:43;7.85;;;6.53;;
33495;SDS011;19836;55.812;37.560;2022-09-16T10:02:15;6.68;;;5.95;;
33495;SDS011;19836;55.812;37.560;2022-09-16T10:04:43;6.97;;;5.70;;
33495;SDS011;19836;55.812;37.560;2022-09-16T10:07:10;6.35;;;5.75;;
33495;SDS011;19836;55.812;37.560;2022-09-16T10:12:24;6.80;;;6.07;;
33495;SDS011;19836;55.812;37.560;2022-09-16T10:14:51;6.88;;;6.18;;
33495;SDS011;19836;55.812;37.560;2022-09-16T10:17:17;6.57;;;5.90;;
33495;SDS011;19836;55.812;37.560;2022-09-16T10:19:51;7.13;;;5.53;;
33495;SDS011;19836;55.812;37.560;2022-09-16T10:22:24;5.80;;;5.13;;
33495;SDS011;19836;55.812;37.560;2022-09-16T10:24:56;7.05;;;5.90;;
33495;SDS011;19836;55.812;37.560;2022-09-16T10:30:13;6.03;;;4.82;;
33495;SDS011;19836;55.812;37.560;2022-09-16T10:35:39;6.63;;;5.38;;
33495;SDS011;19836;55.812;37.560;2022-09-16T10:38:18;5.50;;;5.00;;
33495;SDS011;19836;55.812;37.560;2022-09-16T10:40:58;5.82;;;5.22;;
33495;SDS011;19836;55.812;37.560;2022-09-16T10:43:28;5.72;;;5.13;;
33495;SDS011;19836;55.812;37.560;2022-09-16T10:45:55;6.47;;;4.32;;
33495;SDS011;19836;55.812;37.560;2022-09-16T10:51:26;5.13;;;4.65;;
33495;SDS011;19836;55.812;37.560;2022-09-16T10:54:02;4.55;;;4.15;;
33495;SDS011;19836;55.812;37.560;2022-09-16T10:56:31;5.60;;;4.50;;
33495;SDS011;19836;55.812;37.560;2022-09-16T10:59:09;4.63;;;3.92;;
33495;SDS011;19836;55.812;37.560;2022-09-16T11:07:01;5.30;;;4.10;;
33495;SDS011;19836;55.812;37.560;2022-09-16T11:10:30;8.90;;;4.38;;
33495;SDS011;19836;55.812;37.560;2022-09-16T11:21:06;5.50;;;4.32;;
33495;SDS011;19836;55.812;37.560;2022-09-16T11:34:57;4.90;;;4.40;;
33495;SDS011;19836;55.812;37.560;2022-09-16T11:37:50;5.80;;;4.45;;
33495;SDS011;19836;55.812;37.560;2022-09-16T11:40:47;4.25;;;3.85;;
33495;SDS011;19836;55.812;37.560;2022-09-16T11:54:58;6.18;;;4.50;;
33495;SDS011;19836;55.812;37.560;2022-09-16T11:57:29;4.90;;;4.38;;
33495;SDS011;19836;55.812;37.560;2022-09-16T12:00:05;5.35;;;4.60;;
33495;SDS011;19836;55.812;37.560;2022-09-16T12:08:02;4.53;;;4.05;;
33495;SDS011;19836;55.812;37.560;2022-09-16T12:11:20;7.30;;;4.88;;
33495;SDS011;19836;55.812;37.560;2022-09-16T12:16:08;7.80;;;5.97;;
33495;SDS011;19836;55.812;37.560;2022-09-16T12:18:43;10.15;;;5.53;;
33495;SDS011;19836;55.812;37.560;2022-09-16T12:24:08;7.20;;;6.50;;
33495;SDS011;19836;55.812;37.560;2022-09-16T12:26:50;5.97;;;5.38;;
33495;SDS011;19836;55.812;37.560;2022-09-16T12:29:25;7.50;;;6.75;;
33495;SDS011;19836;55.812;37.560;2022-09-16T12:34:32;7.55;;;6.68;;
33495;SDS011;19836;55.812;37.560;2022-09-16T12:37:52;8.35;;;6.50;;
33495;SDS011;19836;55.812;37.560;2022-09-16T12:40:01;9.55;;;6.40;;
33495;SDS011;19836;55.812;37.560;2022-09-16T13:01:22;10.75;;;6.82;;
33495;SDS011;19836;55.812;37.560;2022-09-16T13:03:59;8.82;;;7.43;;
33495;SDS011;19836;55.812;37.560;2022-09-16T13:06:36;9.25;;;7.18;;
33495;SDS011;19836;55.812;37.560;2022-09-16T13:12:05;15.10;;;12.35;;
33495;SDS011;19836;55.812;37.560;2022-09-16T13:17:25;10.00;;;7.80;;
33495;SDS011;19836;55.812;37.560;2022-09-16T13:19:52;16.02;;;14.18;;
33495;SDS011;19836;55.812;37.560;2022-09-16T13:22:21;14.68;;;9.48;;
33495;SDS011;19836;55.812;37.560;2022-09-16T13:25:28;9.80;;;8.13;;
33495;SDS011;19836;55.812;37.560;2022-09-16T13:28:03;16.85;;;9.50;;
33495;SDS011;19836;55.812;37.560;2022-09-16T13:30:47;7.70;;;6.85;;
33495;SDS011;19836;55.812;37.560;2022-09-16T13:33:21;8.93;;;7.55;;
33495;SDS011;19836;55.812;37.560;2022-09-16T13:38:39;10.48;;;8.45;;
33495;SDS011;19836;55.812;37.560;2022-09-16T13:41:09;14.15;;;9.43;;
33495;SDS011;19836;55.812;37.560;2022-09-16T13:46:12;13.90;;;8.65;;
33495;SDS011;19836;55.812;37.560;2022-09-16T13:51:28;13.10;;;9.38;;
33495;SDS011;19836;55.812;37.560;2022-09-16T13:53:56;14.60;;;10.85;;
33495;SDS011;19836;55.812;37.560;2022-09-16T14:02:18;9.77;;;7.82;;
33495;SDS011;19836;55.812;37.560;2022-09-16T14:12:51;13.48;;;9.00;;
33495;SDS011;19836;55.812;37.560;2022-09-16T14:15:20;15.75;;;9.52;;
33495;SDS011;19836;55.812;37.560;2022-09-16T14:17:48;12.77;;;9.52;;
33495;SDS011;19836;55.812;37.560;2022-09-16T14:20:19;13.85;;;9.18;;
33495;SDS011;19836;55.812;37.560;2022-09-16T14:22:47;13.65;;;9.85;;
33495;SDS011;19836;55.812;37.560;2022-09-16T14:28:05;14.43;;;10.15;;
33495;SDS011;19836;55.812;37.560;2022-09-16T14:33:29;12.13;;;9.20;;
33495;SDS011;19836;55.812;37.560;2022-09-16T14:35:58;12.40;;;9.43;;
33495;SDS011;19836;55.812;37.560;2022-09-16T14:38:30;9.40;;;8.48;;
33495;SDS011;19836;55.812;37.560;2022-09-16T14:41:00;13.55;;;8.60;;
33495;SDS011;19836;55.812;37.560;2022-09-16T14:43:30;8.52;;;6.90;;
33495;SDS011;19836;55.812;37.560;2022-09-16T14:45:56;6.93;;;6.20;;
33495;SDS011;19836;55.812;37.560;2022-09-16T14:48:29;8.18;;;6.75;;
33495;SDS011;19836;55.812;37.560;2022-09-16T14:50:58;6.43;;;5.50;;
33495;SDS011;19836;55.812;37.560;2022-09-16T14:53:31;6.80;;;5.25;;
33495;SDS011;19836;55.812;37.560;2022-09-16T14:56:23;6.32;;;5.65;;
33495;SDS011;19836;55.812;37.560;2022-09-16T14:58:50;6.57;;;5.78;;
33495;SDS011;19836;55.812;37.560;2022-09-16T15:01:25;6.20;;;5.60;;
33495;SDS011;19836;55.812;37.560;2022-09-16T15:06:38;7.20;;;6.45;;
33495;SDS011;19836;55.812;37.560;2022-09-16T15:09:15;6.88;;;6.18;;
33495;SDS011;19836;55.812;37.560;2022-09-16T15:11:56;8.23;;;7.03;;
33495;SDS011;19836;55.812;37.560;2022-09-16T15:14:31;8.50;;;7.50;;
33495;SDS011;19836;55.812;37.560;2022-09-16T15:17:03;8.40;;;6.70;;
33495;SDS011;19836;55.812;37.560;2022-09-16T15:19:36;7.78;;;6.75;;
33495;SDS011;19836;55.812;37.560;2022-09-16T15:22:07;7.57;;;6.88;;
33495;SDS011;19836;55.812;37.560;2022-09-16T15:24:42;7.70;;;6.85;;
33495;SDS011;19836;55.812;37.560;2022-09-16T15:27:18;12.50;;;7.10;;
33495;SDS011;19836;55.812;37.560;2022-09-16T15:29:47;10.05;;;7.18;;
33495;SDS011;19836;55.812;37.560;2022-09-16T15:32:18;7.28;;;6.55;;
33495;SDS011;19836;55.812;37.560;2022-09-16T15:34:58;8.15;;;6.78;;
33495;SDS011;19836;55.812;37.560;2022-09-16T15:37:46;7.22;;;6.07;;
33495;SDS011;19836;55.812;37.560;2022-09-16T16:02:48;6.88;;;6.22;;
33495;SDS011;19836;55.812;37.560;2022-09-16T16:05:28;9.75;;;8.25;;
33495;SDS011;19836;55.812;37.560;2022-09-16T16:08:12;9.27;;;7.50;;
33495;SDS011;19836;55.812;37.560;2022-09-16T16:11:07;10.13;;;8.13;;
33495;SDS011;19836;55.812;37.560;2022-09-16T16:13:44;8.48;;;7.38;;
33495;SDS011;19836;55.812;37.560;2022-09-16T16:16:11;8.65;;;7.78;;
33495;SDS011;19836;55.812;37.560;2022-09-16T16:18:43;8.60;;;7.80;;
33495;SDS011;19836;55.812;37.560;2022-09-16T16:21:11;9.10;;;7.72;;
33495;SDS011;19836;55.812;37.560;2022-09-16T16:23:40;8.57;;;7.68;;
33495;SDS011;19836;55.812;37.560;2022-09-16T16:26:07;9.25;;;8.30;;
33495;SDS011;19836;55.812;37.560;2022-09-16T16:28:35;9.43;;;8.13;;
33495;SDS011;19836;55.812;37.560;2022-09-16T16:31:06;9.30;;;8.35;;
33495;SDS011;19836;55.812;37.560;2022-09-16T16:33:42;11.00;;;9.40;;
33495;SDS011;19836;55.812;37.560;2022-09-16T16:36:10;10.10;;;9.10;;
33495;SDS011;19836;55.812;37.560;2022-09-16T16:38:38;9.90;;;8.95;;
33495;SDS011;19836;55.812;37.560;2022-09-16T16:41:05;9.35;;;8.45;;
33495;SDS011;19836;55.812;37.560;2022-09-16T16:43:32;10.80;;;9.52;;
33495;SDS011;19836;55.812;37.560;2022-09-16T16:45:58;7.88;;;7.07;;
33495;SDS011;19836;55.812;37.560;2022-09-16T16:48:28;12.40;;;8.60;;
33495;SDS011;19836;55.812;37.560;2022-09-16T16:51:12;9.90;;;9.00;;
33495;SDS011;19836;55.812;37.560;2022-09-16T16:53:38;8.00;;;7.20;;
33495;SDS011;19836;55.812;37.560;2022-09-16T16:56:05;8.27;;;6.88;;
33495;SDS011;19836;55.812;37.560;2022-09-16T16:58:33;9.52;;;7.93;;
33495;SDS011;19836;55.812;37.560;2022-09-16T17:01:08;8.95;;;8.05;;
33495;SDS011;19836;55.812;37.560;2022-09-16T17:03:37;9.55;;;8.57;;
33495;SDS011;19836;55.812;37.560;2022-09-16T17:06:04;9.23;;;7.72;;
33495;SDS011;19836;55.812;37.560;2022-09-16T17:08:32;9.18;;;7.95;;
33495;SDS011;19836;55.812;37.560;2022-09-16T17:11:08;8.48;;;7.43;;
33495;SDS011;19836;55.812;37.560;2022-09-16T17:13:35;9.15;;;8.25;;
33495;SDS011;19836;55.812;37.560;2022-09-16T17:16:06;9.20;;;8.25;;
33495;SDS011;19836;55.812;37.560;2022-09-16T17:18:37;9.23;;;8.32;;
33495;SDS011;19836;55.812;37.560;2022-09-16T17:21:15;8.55;;;7.75;;
33495;SDS011;19836;55.812;37.560;2022-09-16T17:23:46;10.70;;;9.55;;
33495;SDS011;19836;55.812;37.560;2022-09-16T17:26:12;9.68;;;8.63;;
33495;SDS011;19836;55.812;37.560;2022-09-16T17:28:39;8.52;;;7.72;;
33495;SDS011;19836;55.812;37.560;2022-09-16T17:31:08;8.30;;;7.50;;
33495;SDS011;19836;55.812;37.560;2022-09-16T17:33:35;9.40;;;8.50;;
33495;SDS011;19836;55.812;37.560;2022-09-16T17:36:04;10.15;;;9.25;;
33495;SDS011;19836;55.812;37.560;2022-09-16T17:38:31;9.55;;;8.63;;
33495;SDS011;19836;55.812;37.560;2022-09-16T17:41:09;8.68;;;7.88;;
33495;SDS011;19836;55.812;37.560;2022-09-16T17:43:37;10.20;;;9.02;;
33495;SDS011;19836;55.812;37.560;2022-09-16T17:46:06;10.57;;;8.75;;
33495;SDS011;19836;55.812;37.560;2022-09-16T17:48:37;10.20;;;9.25;;
33495;SDS011;19836;55.812;37.560;2022-09-16T17:51:03;11.60;;;9.88;;
33495;SDS011;19836;55.812;37.560;2022-09-16T17:53:29;10.43;;;9.30;;
33495;SDS011;19836;55.812;37.560;2022-09-16T17:56:07;10.70;;;9.60;;
33495;SDS011;19836;55.812;37.560;2022-09-16T17:58:42;10.70;;;9.60;;
33495;SDS011;19836;55.812;37.560;2022-09-16T18:01:10;10.48;;;9.50;;
33495;SDS011;19836;55.812;37.560;2022-09-16T18:07:01;10.18;;;9.18;;
33495;SDS011;19836;55.812;37.560;2022-09-16T18:09:45;9.60;;;8.60;;
33495;SDS011;19836;55.812;37.560;2022-09-16T18:13:41;9.50;;;8.50;;
33495;SDS011;19836;55.812;37.560;2022-09-16T18:16:09;10.55;;;9.45;;
33495;SDS011;19836;55.812;37.560;2022-09-16T18:18:39;10.82;;;8.80;;
33495;SDS011;19836;55.812;37.560;2022-09-16T18:21:06;11.55;;;9.80;;
33495;SDS011;19836;55.812;37.560;2022-09-16T18:23:34;10.43;;;9.35;;
33495;SDS011;19836;55.812;37.560;2022-09-16T18:26:03;10.38;;;9.38;;
33495;SDS011;19836;55.812;37.560;2022-09-16T18:28:33;11.13;;;10.02;;
33495;SDS011;19836;55.812;37.560;2022-09-16T18:31:01;10.85;;;9.82;;
33495;SDS011;19836;55.812;37.560;2022-09-16T18:33:31;16.77;;;15.13;;
33495;SDS011;19836;55.812;37.560;2022-09-16T18:35:58;12.05;;;10.77;;
33495;SDS011;19836;55.812;37.560;2022-09-16T18:38:29;13.43;;;11.48;;
33495;SDS011;19836;55.812;37.560;2022-09-16T18:41:09;12.10;;;10.63;;
33495;SDS011;19836;55.812;37.560;2022-09-16T18:43:39;11.80;;;10.60;;
33495;SDS011;19836;55.812;37.560;2022-09-16T18:46:11;12.40;;;11.20;;
33495;SDS011;19836;55.812;37.560;2022-09-16T18:48:42;13.02;;;11.73;;
33495;SDS011;19836;55.812;37.560;2022-09-16T18:51:26;12.38;;;11.05;;
33495;SDS011;19836;55.812;37.560;2022-09-16T18:53:58;12.45;;;11.07;;
33495;SDS011;19836;55.812;37.560;2022-09-16T18:56:27;10.82;;;9.73;;
33495;SDS011;19836;55.812;37.560;2022-09-16T18:58:58;12.57;;;11.27;;
33495;SDS011;19836;55.812;37.560;2022-09-16T19:01:33;13.75;;;12.10;;
33495;SDS011;19836;55.812;37.560;2022-09-16T19:04:03;15.52;;;11.88;;
33495;SDS011;19836;55.812;37.560;2022-09-16T19:06:33;12.43;;;11.23;;
33495;SDS011;19836;55.812;37.560;2022-09-16T19:09:07;13.38;;;11.95;;
33495;SDS011;19836;55.812;37.560;2022-09-16T19:11:34;15.63;;;12.30;;
33495;SDS011;19836;55.812;37.560;2022-09-16T19:14:02;15.35;;;13.32;;
33495;SDS011;19836;55.812;37.560;2022-09-16T19:16:29;14.25;;;12.77;;
33495;SDS011;19836;55.812;37.560;2022-09-16T19:18:58;13.68;;;12.27;;
33495;SDS011;19836;55.812;37.560;2022-09-16T19:21:26;16.58;;;13.52;;